createdAt,value
2017-04-23T00:00:15.670Z,99.99
2017-04-23T00:01:15.993Z,99.68
2017-04-23T00:02:30.625Z,99.77
2017-04-23T00:03:16.026Z,99.87
2017-04-23T00:04:16.045Z,99.99
2017-04-23T00:05:16.061Z,99.99
2017-04-23T00:06:16.081Z,99.87
2017-04-23T00:07:16.098Z,99.96
2017-04-23T00:08:16.115Z,99.68
2017-04-23T00:09:16.132Z,99.99
2017-04-23T00:10:16.152Z,99.99
2017-04-23T00:11:16.169Z,99.99
2017-04-23T00:12:16.185Z,99.99
2017-04-23T00:13:15.905Z,99.99
2017-04-23T00:14:16.223Z,99.99
2017-04-23T00:16:16.259Z,99.99
2017-04-23T00:17:30.891Z,99.99
2017-04-23T00:18:16.295Z,99.99
2017-04-23T00:19:16.313Z,99.99
2017-04-23T00:20:16.328Z,99.99
2017-04-23T00:21:16.052Z,99.99
2017-04-23T00:22:16.365Z,99.99
2017-04-23T00:23:16.380Z,99.99
2017-04-23T00:24:16.402Z,99.99
2017-04-23T00:25:16.423Z,99.99
2017-04-23T00:26:16.434Z,99.99
2017-04-23T00:27:16.452Z,99.99
2017-04-23T00:28:16.469Z,99.99
2017-04-23T00:29:16.488Z,99.99
2017-04-23T00:30:16.505Z,99.99
2017-04-23T00:31:16.523Z,99.99
2017-04-23T00:32:16.539Z,99.99
2017-04-23T00:33:16.558Z,99.99
2017-04-23T00:34:16.578Z,99.99
2017-04-23T00:35:16.594Z,99.99
2017-04-23T00:36:16.614Z,99.99
2017-04-23T00:37:16.629Z,99.87
2017-04-23T00:38:16.646Z,99.39
2017-04-23T00:39:16.362Z,99.49
2017-04-23T00:40:16.683Z,99.68
2017-04-23T00:41:16.699Z,99.49
2017-04-23T00:42:16.719Z,99.49
2017-04-23T00:43:16.735Z,99.49
2017-04-23T00:44:16.753Z,99.49
2017-04-23T00:45:16.770Z,99.68
2017-04-23T00:47:16.806Z,99.39
2017-04-23T00:49:31.458Z,99.3
2017-04-23T00:50:16.859Z,98.63
2017-04-23T00:51:16.878Z,98.54
2017-04-23T00:52:16.902Z,98.63
2017-04-23T00:53:16.913Z,98.54
2017-04-23T00:54:16.627Z,98.54
2017-04-23T00:55:16.948Z,98.54
2017-04-23T00:56:16.966Z,98.92
2017-04-23T00:57:16.985Z,98.73
2017-04-23T00:58:17.001Z,98.44
2017-04-23T00:59:17.029Z,98.63
2017-04-23T01:00:17.037Z,99.01
2017-04-23T01:01:17.054Z,99.11
2017-04-23T01:02:16.775Z,99.87
2017-04-23T01:04:17.110Z,99.68
2017-04-23T01:05:31.742Z,99.68
2017-04-23T01:06:17.143Z,99.39
2017-04-23T01:07:17.159Z,98.54
2017-04-23T01:08:16.876Z,98.54
2017-04-23T01:09:17.196Z,98.44
2017-04-23T01:10:17.222Z,98.35
2017-04-23T01:11:16.926Z,98.25
2017-04-23T01:12:17.254Z,98.44
2017-04-23T01:13:17.270Z,98.16
2017-04-23T01:14:17.283Z,98.25
2017-04-23T01:15:17.301Z,97.69
2017-04-23T01:16:17.321Z,97.02
2017-04-23T01:17:17.339Z,97.31
2017-04-23T01:18:17.359Z,97.02
2017-04-23T01:19:17.375Z,96.64
2017-04-23T01:20:17.391Z,97.17
2017-04-23T01:21:32.024Z,96.88
2017-04-23T01:22:17.427Z,95.84
2017-04-23T01:23:17.445Z,96.03
2017-04-23T01:24:17.462Z,96.83
2017-04-23T01:25:17.479Z,96.55
2017-04-23T01:26:17.496Z,97.26
2017-04-23T01:27:17.516Z,97.26
2017-04-23T01:28:17.532Z,96.69
2017-04-23T01:29:17.248Z,96.88
2017-04-23T01:30:17.569Z,97.12
2017-04-23T01:31:17.587Z,97.31
2017-04-23T01:32:17.605Z,97.36
2017-04-23T01:33:17.622Z,97.36
2017-04-23T01:34:17.647Z,96.88
2017-04-23T01:37:32.309Z,96.92
2017-04-23T01:38:17.714Z,96.5
2017-04-23T01:39:17.729Z,96.69
2017-04-23T01:40:17.746Z,96.78
2017-04-23T01:41:17.763Z,96.5
2017-04-23T01:42:17.480Z,96.03
2017-04-23T01:43:17.800Z,96.88
2017-04-23T01:44:17.513Z,96.78
2017-04-23T01:45:17.853Z,96.88
2017-04-23T01:46:17.854Z,96.92
2017-04-23T01:47:17.872Z,96.73
2017-04-23T01:48:17.891Z,96.97
2017-04-23T01:49:17.906Z,97.02
2017-04-23T01:51:17.943Z,96.08
2017-04-23T01:52:32.577Z,96.73
2017-04-23T01:53:17.980Z,96.83
2017-04-23T01:54:17.998Z,96.83
2017-04-23T01:55:18.014Z,96.73
2017-04-23T01:56:18.032Z,96.64
2017-04-23T01:57:18.051Z,96.83
2017-04-23T01:58:18.067Z,96.83
2017-04-23T01:59:18.088Z,96.73
2017-04-23T02:00:18.104Z,97.02
2017-04-23T02:01:18.121Z,96.55
2017-04-23T02:02:18.139Z,97.02
2017-04-23T02:03:18.157Z,96.83
2017-04-23T02:05:18.191Z,96.73
2017-04-23T02:06:18.211Z,96.92
2017-04-23T02:07:18.229Z,96.64
2017-04-23T02:08:18.247Z,96.73
2017-04-23T02:09:18.264Z,96.73
2017-04-23T02:10:18.283Z,96.92
2017-04-23T02:11:18.299Z,96.45
2017-04-23T02:12:18.321Z,97.02
2017-04-23T02:13:18.032Z,97.4
2017-04-23T02:14:18.353Z,97.21
2017-04-23T02:15:18.371Z,97.21
2017-04-23T02:16:18.386Z,97.4
2017-04-23T02:17:18.101Z,97.02
2017-04-23T02:19:18.441Z,97.4
2017-04-23T02:22:18.494Z,97.5
2017-04-23T02:23:18.517Z,97.5
2017-04-23T02:24:33.146Z,97.69
2017-04-23T02:25:18.546Z,97.78
2017-04-23T02:26:18.565Z,97.59
2017-04-23T02:27:18.581Z,97.78
2017-04-23T02:28:18.599Z,97.78
2017-04-23T02:29:18.622Z,97.69
2017-04-23T02:30:18.636Z,97.5
2017-04-23T02:31:18.654Z,97.31
2017-04-23T02:32:18.672Z,97.78
2017-04-23T02:33:18.692Z,97.69
2017-04-23T02:34:18.707Z,97.31
2017-04-23T02:35:18.420Z,97.31
2017-04-23T02:36:18.447Z,97.12
2017-04-23T02:38:18.777Z,96.83
2017-04-23T02:39:18.797Z,97.5
2017-04-23T02:40:33.429Z,97.12
2017-04-23T02:41:18.830Z,96.83
2017-04-23T02:42:18.545Z,97.02
2017-04-23T02:43:18.564Z,97.4
2017-04-23T02:44:18.884Z,97.21
2017-04-23T02:45:18.598Z,96.92
2017-04-23T02:46:18.921Z,96.92
2017-04-23T02:47:18.936Z,96.92
2017-04-23T02:48:18.957Z,97.31
2017-04-23T02:49:18.973Z,97.21
2017-04-23T02:50:18.991Z,97.12
2017-04-23T02:51:19.013Z,97.21
2017-04-23T02:52:19.026Z,97.21
2017-04-23T02:53:19.055Z,96.92
2017-04-23T02:54:19.065Z,97.12
2017-04-23T02:55:19.077Z,96.83
2017-04-23T02:56:33.713Z,96.55
2017-04-23T02:57:19.113Z,96.97
2017-04-23T02:58:19.134Z,96.69
2017-04-23T02:59:19.154Z,96.59
2017-04-23T03:00:19.167Z,96.41
2017-04-23T03:01:19.186Z,96.59
2017-04-23T03:02:19.202Z,96.36
2017-04-23T03:03:19.222Z,96.45
2017-04-23T03:04:19.242Z,96.92
2017-04-23T03:05:19.257Z,96.73
2017-04-23T03:06:19.275Z,96.45
2017-04-23T03:07:19.294Z,96.73
2017-04-23T03:08:19.313Z,96.83
2017-04-23T03:09:19.331Z,96.73
2017-04-23T03:10:19.348Z,96.64
2017-04-23T03:11:19.363Z,97.31
2017-04-23T03:12:33.999Z,97.02
2017-04-23T03:13:19.402Z,96.97
2017-04-23T03:14:19.421Z,96.69
2017-04-23T03:15:19.439Z,96.78
2017-04-23T03:16:19.454Z,96.5
2017-04-23T03:17:19.476Z,96.78
2017-04-23T03:18:19.491Z,96.88
2017-04-23T03:19:19.509Z,96.78
2017-04-23T03:20:19.223Z,96.59
2017-04-23T03:21:19.544Z,96.64
2017-04-23T03:22:19.561Z,96.97
2017-04-23T03:23:19.579Z,96.88
2017-04-23T03:24:19.296Z,96.78
2017-04-23T03:25:19.615Z,96.88
2017-04-23T03:26:19.633Z,96.59
2017-04-23T03:27:34.268Z,96.83
2017-04-23T03:28:19.672Z,97.26
2017-04-23T03:29:19.691Z,96.78
2017-04-23T03:30:19.705Z,96.88
2017-04-23T03:31:19.723Z,96.12
2017-04-23T03:32:19.743Z,96.03
2017-04-23T03:33:19.761Z,96.5
2017-04-23T03:34:19.775Z,96.41
2017-04-23T03:35:19.795Z,96.41
2017-04-23T03:36:19.814Z,96.12
2017-04-23T03:37:19.525Z,96.59
2017-04-23T03:38:19.855Z,96.5
2017-04-23T03:39:19.866Z,96.03
2017-04-23T03:40:19.883Z,96.03
2017-04-23T03:41:19.903Z,96.59
2017-04-23T03:42:19.920Z,96.78
2017-04-23T03:43:19.938Z,96.59
2017-04-23T03:44:19.956Z,96.12
2017-04-23T03:45:19.973Z,96.03
2017-04-23T03:46:19.992Z,96.12
2017-04-23T03:47:20.008Z,96.41
2017-04-23T03:48:19.723Z,96.78
2017-04-23T03:49:20.060Z,96.03
2017-04-23T03:50:20.063Z,96.12
2017-04-23T03:51:20.080Z,96.5
2017-04-23T03:52:20.098Z,96.12
2017-04-23T03:53:20.118Z,96.88
2017-04-23T03:54:20.136Z,96.88
2017-04-23T03:55:20.152Z,96.78
2017-04-23T03:57:20.189Z,96.41
2017-04-23T03:58:20.206Z,96.5
2017-04-23T03:59:34.840Z,96.03
2017-04-23T04:00:20.241Z,95.84
2017-04-23T04:01:20.260Z,95.84
2017-04-23T04:02:20.276Z,96.5
2017-04-23T04:03:20.298Z,96.12
2017-04-23T04:04:20.316Z,96.22
2017-04-23T04:05:20.332Z,96.12
2017-04-23T04:06:20.348Z,95.55
2017-04-23T04:07:20.367Z,95.74
2017-04-23T04:08:20.391Z,95.74
2017-04-23T04:09:20.405Z,95.27
2017-04-23T04:10:20.420Z,95.27
2017-04-23T04:11:20.438Z,95.27
2017-04-23T04:13:20.473Z,94.42
2017-04-23T04:14:20.493Z,94.89
2017-04-23T04:15:35.127Z,94.42
2017-04-23T04:16:20.528Z,95.07
2017-04-23T04:17:20.546Z,95.27
2017-04-23T04:18:20.564Z,94.79
2017-04-23T04:19:20.586Z,94.42
2017-04-23T04:20:20.600Z,94.7
2017-04-23T04:21:20.618Z,94.23
2017-04-23T04:22:20.635Z,94.32
2017-04-23T04:23:20.657Z,94.32
2017-04-23T04:24:20.674Z,94.23
2017-04-23T04:25:20.691Z,93.84
2017-04-23T04:26:20.406Z,93.75
2017-04-23T04:29:20.765Z,93.94
2017-04-23T04:30:20.477Z,94.13
2017-04-23T04:31:35.414Z,93.18
2017-04-23T04:32:20.817Z,93.08
2017-04-23T04:33:20.837Z,93.37
2017-04-23T04:34:20.854Z,93.37
2017-04-23T04:35:20.870Z,93.46
2017-04-23T04:36:20.889Z,93.65
2017-04-23T04:37:20.907Z,93.65
2017-04-23T04:38:20.927Z,93.65
2017-04-23T04:39:20.944Z,93.46
2017-04-23T04:40:20.960Z,93.75
2017-04-23T04:41:20.978Z,93.84
2017-04-23T04:42:20.997Z,93.65
2017-04-23T04:44:21.035Z,92.99
2017-04-23T04:47:35.705Z,91.47
2017-04-23T04:48:21.107Z,91.47
2017-04-23T04:49:21.127Z,91.66
2017-04-23T04:50:21.142Z,91
2017-04-23T04:51:21.162Z,90.62
2017-04-23T04:52:21.181Z,90.33
2017-04-23T04:53:21.199Z,90.14
2017-04-23T04:54:21.218Z,90.43
2017-04-23T04:55:21.233Z,90.24
2017-04-23T04:56:21.252Z,90.19
2017-04-23T04:57:21.270Z,90.47
2017-04-23T05:00:21.324Z,90.28
2017-04-23T05:01:21.343Z,90.47
2017-04-23T05:02:35.978Z,90.38
2017-04-23T05:03:21.381Z,90.38
2017-04-23T05:04:21.401Z,89.72
2017-04-23T05:05:21.416Z,90.19
2017-04-23T05:06:21.434Z,90.47
2017-04-23T05:07:21.453Z,90.09
2017-04-23T05:08:21.471Z,90.28
2017-04-23T05:09:21.498Z,90.28
2017-04-23T05:10:21.507Z,90.38
2017-04-23T05:11:21.532Z,90.85
2017-04-23T05:12:21.542Z,91.14
2017-04-23T05:13:21.566Z,90.47
2017-04-23T05:14:21.580Z,90.28
2017-04-23T05:17:21.638Z,91.04
2017-04-23T05:18:21.655Z,90.95
2017-04-23T05:19:21.673Z,90.66
2017-04-23T05:20:21.692Z,91.14
2017-04-23T05:21:21.719Z,91.33
2017-04-23T05:22:21.726Z,91.33
2017-04-23T05:23:21.750Z,91.04
2017-04-23T05:24:21.769Z,90.57
2017-04-23T05:25:21.782Z,91.14
2017-04-23T05:26:21.801Z,91.04
2017-04-23T05:27:21.818Z,90.76
2017-04-23T05:28:21.839Z,90.95
2017-04-23T05:29:21.857Z,91.14
2017-04-23T05:30:21.873Z,90.66
2017-04-23T05:31:21.895Z,90.57
2017-04-23T05:33:21.936Z,90.85
2017-04-23T05:34:36.564Z,91.04
2017-04-23T05:35:21.966Z,90.38
2017-04-23T05:36:21.985Z,91.14
2017-04-23T05:37:22.002Z,91.33
2017-04-23T05:38:22.023Z,90.57
2017-04-23T05:39:22.040Z,90.76
2017-04-23T05:40:22.068Z,91.14
2017-04-23T05:41:22.076Z,91.33
2017-04-23T05:42:22.095Z,91.42
2017-04-23T05:43:22.114Z,91.42
2017-04-23T05:44:22.134Z,91.42
2017-04-23T05:46:22.169Z,90.99
2017-04-23T05:47:22.190Z,90.52
2017-04-23T05:49:22.227Z,90.05
2017-04-23T05:50:36.860Z,90.14
2017-04-23T05:51:21.959Z,90.05
2017-04-23T05:52:22.283Z,90.33
2017-04-23T05:53:22.303Z,90.14
2017-04-23T05:54:22.319Z,90.33
2017-04-23T05:55:22.336Z,89.47
2017-04-23T05:56:22.356Z,89.95
2017-04-23T05:57:22.072Z,89.28
2017-04-23T05:58:22.394Z,89
2017-04-23T05:59:22.415Z,89.38
2017-04-23T06:00:22.430Z,89.38
2017-04-23T06:02:22.473Z,88.34
2017-04-23T06:03:22.486Z,88.81
2017-04-23T06:04:22.506Z,88.71
2017-04-23T06:05:22.524Z,89.19
2017-04-23T06:06:37.160Z,88.9
2017-04-23T06:07:22.562Z,88.9
2017-04-23T06:08:22.582Z,88.9
2017-04-23T06:09:22.602Z,87.95
2017-04-23T06:10:22.619Z,88.34
2017-04-23T06:11:22.637Z,87.95
2017-04-23T06:12:22.657Z,88.05
2017-04-23T06:13:22.676Z,88.81
2017-04-23T06:14:22.694Z,89.86
2017-04-23T06:15:22.718Z,90.23
2017-04-23T06:16:22.734Z,90.71
2017-04-23T06:17:22.751Z,91.28
2017-04-23T06:19:22.791Z,93.18
2017-04-23T06:20:22.808Z,93.46
2017-04-23T06:21:22.827Z,93.94
2017-04-23T06:22:37.462Z,94.51
2017-04-23T06:23:22.866Z,94.03
2017-04-23T06:24:22.883Z,94.51
2017-04-23T06:25:22.921Z,94.42
2017-04-23T06:26:22.922Z,94.7
2017-04-23T06:27:22.941Z,94.79
2017-04-23T06:28:22.962Z,94.79
2017-04-23T06:29:22.977Z,95.08
2017-04-23T06:30:22.996Z,94.79
2017-04-23T06:31:23.016Z,94.98
2017-04-23T06:32:23.034Z,94.13
2017-04-23T06:33:23.059Z,93.18
2017-04-23T06:34:23.073Z,93.37
2017-04-23T06:35:23.091Z,93.94
2017-04-23T06:36:23.110Z,92.71
2017-04-23T06:37:37.747Z,92.71
2017-04-23T06:38:23.158Z,91.75
2017-04-23T06:39:23.168Z,91.85
2017-04-23T06:40:23.191Z,91.66
2017-04-23T06:41:23.207Z,91.09
2017-04-23T06:42:23.226Z,91.28
2017-04-23T06:43:23.250Z,90.23
2017-04-23T06:44:23.263Z,90.8
2017-04-23T06:45:23.282Z,90.52
2017-04-23T06:46:23.300Z,89.95
2017-04-23T06:47:23.322Z,90.05
2017-04-23T06:48:23.342Z,89.57
2017-04-23T06:49:23.359Z,90.42
2017-04-23T06:52:23.418Z,90.61
2017-04-23T06:53:23.436Z,90.42
2017-04-23T06:54:23.457Z,90.14
2017-04-23T06:55:23.473Z,90.52
2017-04-23T06:56:23.496Z,90.9
2017-04-23T06:57:23.511Z,90.52
2017-04-23T06:58:23.555Z,90.33
2017-04-23T06:59:23.551Z,89.76
2017-04-23T07:00:23.570Z,89.19
2017-04-23T07:01:23.590Z,89.28
2017-04-23T07:02:23.608Z,89.47
2017-04-23T07:03:23.630Z,89.47
2017-04-23T07:04:23.647Z,89.76
2017-04-23T07:05:23.668Z,90.05
2017-04-23T07:06:23.686Z,90.71
2017-04-23T07:07:23.704Z,90.9
2017-04-23T07:08:23.729Z,91.38
2017-04-23T07:09:38.359Z,92.71
2017-04-23T07:10:23.761Z,92.51
2017-04-23T07:11:23.781Z,93.18
2017-04-23T07:12:23.799Z,93.46
2017-04-23T07:13:23.819Z,93.89
2017-04-23T07:14:23.841Z,94.56
2017-04-23T07:15:23.859Z,94.79
2017-04-23T07:16:23.877Z,95.22
2017-04-23T07:17:23.895Z,94.56
2017-04-23T07:18:23.915Z,94.93
2017-04-23T07:19:23.933Z,94.32
2017-04-23T07:20:23.953Z,94.6
2017-04-23T07:21:23.971Z,95.03
2017-04-23T07:24:24.029Z,94.7
2017-04-23T07:25:38.666Z,94.6
2017-04-23T07:26:24.068Z,93.46
2017-04-23T07:27:24.087Z,93.08
2017-04-23T07:28:24.106Z,93.32
2017-04-23T07:29:24.127Z,93.41
2017-04-23T07:30:24.145Z,93.6
2017-04-23T07:31:24.164Z,92.56
2017-04-23T07:32:24.184Z,93.37
2017-04-23T07:33:24.204Z,93.37
2017-04-23T07:34:24.224Z,93.56
2017-04-23T07:35:24.242Z,92.85
2017-04-23T07:36:24.263Z,93.08
2017-04-23T07:38:24.326Z,92.75
2017-04-23T07:39:24.322Z,92.94
2017-04-23T07:40:24.340Z,92.56
2017-04-23T07:41:38.976Z,91.99
2017-04-23T07:42:24.381Z,91.42
2017-04-23T07:43:24.400Z,91.13
2017-04-23T07:44:24.422Z,90.56
2017-04-23T07:45:24.134Z,91.13
2017-04-23T07:46:24.460Z,90.66
2017-04-23T07:47:24.478Z,90.61
2017-04-23T07:48:24.499Z,89.37
2017-04-23T07:49:24.520Z,89.66
2017-04-23T07:50:24.540Z,89.28
2017-04-23T07:51:24.559Z,88.9
2017-04-23T07:53:24.600Z,89.23
2017-04-23T07:54:24.621Z,87.99
2017-04-23T07:55:24.669Z,86.85
2017-04-23T07:57:39.298Z,85.99
2017-04-23T07:58:24.703Z,86.57
2017-04-23T07:59:24.725Z,85.99
2017-04-23T08:00:24.742Z,85.37
2017-04-23T08:01:24.764Z,85.61
2017-04-23T08:02:24.794Z,86.76
2017-04-23T08:03:24.807Z,85.18
2017-04-23T08:04:24.826Z,85.14
2017-04-23T08:05:24.847Z,85.24
2017-04-23T08:06:24.868Z,85.61
2017-04-23T08:07:24.887Z,86.28
2017-04-23T08:08:24.913Z,85.71
2017-04-23T08:09:24.930Z,85.42
2017-04-23T08:10:24.951Z,85.28
2017-04-23T08:11:24.973Z,85.28
2017-04-23T08:12:39.610Z,86.14
2017-04-23T08:13:25.014Z,85.76
2017-04-23T08:14:25.037Z,86.52
2017-04-23T08:15:25.055Z,86.33
2017-04-23T08:16:24.773Z,86.24
2017-04-23T08:17:25.098Z,85.86
2017-04-23T08:18:25.133Z,86.52
2017-04-23T08:19:25.137Z,86.33
2017-04-23T08:20:25.159Z,87.66
2017-04-23T08:21:25.178Z,87.95
2017-04-23T08:22:25.202Z,88.23
2017-04-23T08:23:25.220Z,88.13
2017-04-23T08:25:25.262Z,87.38
2017-04-23T08:26:25.280Z,87.85
2017-04-23T08:27:25.300Z,86.8
2017-04-23T08:28:25.321Z,86.43
2017-04-23T08:29:25.344Z,86.14
2017-04-23T08:30:25.362Z,85.9
2017-04-23T08:31:25.384Z,83.42
2017-04-23T08:32:25.404Z,84.19
2017-04-23T08:33:25.425Z,82.42
2017-04-23T08:34:25.443Z,82.42
2017-04-23T08:35:25.466Z,81.85
2017-04-23T08:36:25.485Z,82.42
2017-04-23T08:37:25.508Z,81.51
2017-04-23T08:38:25.530Z,79.41
2017-04-23T08:39:25.551Z,79.47
2017-04-23T08:40:25.570Z,80.42
2017-04-23T08:42:25.614Z,80.23
2017-04-23T08:43:25.637Z,80.71
2017-04-23T08:44:40.274Z,80.46
2017-04-23T08:45:25.678Z,79.8
2017-04-23T08:46:25.700Z,79.51
2017-04-23T08:47:25.721Z,77.98
2017-04-23T08:49:25.767Z,79.22
2017-04-23T08:50:25.786Z,77.42
2017-04-23T08:51:25.810Z,77.32
2017-04-23T08:52:25.829Z,77.89
2017-04-23T08:53:25.853Z,79.57
2017-04-23T08:54:25.874Z,79.94
2017-04-23T08:55:25.898Z,80.66
2017-04-23T08:56:25.917Z,81.14
2017-04-23T08:57:25.940Z,82.09
2017-04-23T08:58:25.657Z,82.09
2017-04-23T08:59:25.987Z,81.05
2017-04-23T09:00:40.621Z,82.67
2017-04-23T09:01:26.027Z,82.28
2017-04-23T09:02:26.050Z,82.28
2017-04-23T09:03:26.070Z,82.19
2017-04-23T09:04:26.091Z,82.19
2017-04-23T09:05:26.112Z,80.95
2017-04-23T09:06:26.133Z,82
2017-04-23T09:07:26.160Z,82.15
2017-04-23T09:08:25.873Z,82.62
2017-04-23T09:09:26.198Z,82.62
2017-04-23T09:10:26.220Z,81.96
2017-04-23T09:11:26.238Z,82.53
2017-04-23T09:12:26.261Z,82.71
2017-04-23T09:14:26.313Z,83.58
2017-04-23T09:15:26.324Z,84.43
2017-04-23T09:16:40.962Z,84.33
2017-04-23T09:17:26.380Z,84.24
2017-04-23T09:18:26.395Z,84.33
2017-04-23T09:19:26.411Z,84.24
2017-04-23T09:20:26.429Z,83.52
2017-04-23T09:21:26.450Z,82.61
2017-04-23T09:22:26.472Z,80.65
2017-04-23T09:23:26.496Z,78.12
2017-04-23T09:24:26.515Z,77.4
2017-04-23T09:25:26.540Z,77.87
2017-04-23T09:26:26.560Z,75.15
2017-04-23T09:27:26.584Z,73.94
2017-04-23T09:28:26.605Z,71.88
2017-04-23T09:31:26.674Z,70.14
2017-04-23T09:32:41.316Z,68.61
2017-04-23T09:33:26.729Z,67.81
2017-04-23T09:34:26.746Z,67.97
2017-04-23T09:35:26.770Z,68.06
2017-04-23T09:36:26.796Z,69.37
2017-04-23T09:37:26.819Z,68.16
2017-04-23T09:38:26.842Z,67.49
2017-04-23T09:39:26.866Z,68.16
2017-04-23T09:40:26.890Z,66.63
2017-04-23T09:41:26.914Z,68.35
2017-04-23T09:42:26.938Z,67.87
2017-04-23T09:43:26.962Z,67.21
2017-04-23T09:44:26.987Z,67.93
2017-04-23T09:45:27.011Z,68.76
2017-04-23T09:46:27.033Z,70.19
2017-04-23T09:47:41.677Z,73.26
2017-04-23T09:48:27.083Z,75.42
2017-04-23T09:49:27.107Z,78.9
2017-04-23T09:50:27.132Z,81.85
2017-04-23T09:51:27.153Z,82.28
2017-04-23T09:52:27.177Z,83.62
2017-04-23T09:53:27.201Z,83.58
2017-04-23T09:54:27.223Z,84.43
2017-04-23T09:55:27.247Z,84.72
2017-04-23T09:56:27.268Z,86.1
2017-04-23T09:57:27.292Z,86.71
2017-04-23T09:58:27.313Z,86.14
2017-04-23T09:59:27.342Z,85.66
2017-04-23T10:01:27.378Z,85.04
2017-04-23T10:02:27.402Z,85.9
2017-04-23T10:03:27.426Z,84.85
2017-04-23T10:04:27.444Z,86.09
2017-04-23T10:05:27.469Z,85.8
2017-04-23T10:06:27.499Z,85.75
2017-04-23T10:07:27.511Z,83.45
2017-04-23T10:08:27.535Z,80.07
2017-04-23T10:09:27.563Z,81.21
2017-04-23T10:10:27.579Z,78.96
2017-04-23T10:11:27.602Z,79.63
2017-04-23T10:12:27.626Z,79.57
2017-04-23T10:13:27.656Z,77.13
2017-04-23T10:14:27.678Z,75.51
2017-04-23T10:15:27.707Z,73.63
2017-04-23T10:16:27.722Z,74.69
2017-04-23T10:18:27.460Z,72.64
2017-04-23T10:19:42.404Z,73.98
2017-04-23T10:20:27.814Z,73.88
2017-04-23T10:21:27.842Z,72.93
2017-04-23T10:22:27.859Z,74.17
2017-04-23T10:23:27.889Z,73.12
2017-04-23T10:24:27.907Z,72.8
2017-04-23T10:25:27.931Z,75.72
2017-04-23T10:26:27.956Z,76.42
2017-04-23T10:27:27.980Z,76.77
2017-04-23T10:28:28.002Z,76.1
2017-04-23T10:29:28.033Z,76.29
2017-04-23T10:30:28.049Z,78.83
2017-04-23T10:31:28.071Z,79.64
2017-04-23T10:33:28.120Z,80.84
2017-04-23T10:34:28.166Z,80.61
2017-04-23T10:35:42.782Z,81.43
2017-04-23T10:36:27.884Z,83.76
2017-04-23T10:37:28.211Z,84.81
2017-04-23T10:38:28.236Z,85.95
2017-04-23T10:39:28.256Z,86.14
2017-04-23T10:40:28.280Z,88.23
2017-04-23T10:41:28.301Z,87.23
2017-04-23T10:42:28.323Z,87.32
2017-04-23T10:43:28.350Z,87.13
2017-04-23T10:45:28.389Z,85.66
2017-04-23T10:46:28.413Z,84.99
2017-04-23T10:47:28.432Z,85.66
2017-04-23T10:48:28.456Z,86.04
2017-04-23T10:49:28.482Z,85.28
2017-04-23T10:50:28.497Z,84.56
2017-04-23T10:51:43.137Z,84.85
2017-04-23T10:52:28.541Z,83.71
2017-04-23T10:53:28.570Z,84.76
2017-04-23T10:54:28.588Z,85.52
2017-04-23T10:55:28.607Z,84.76
2017-04-23T10:56:28.629Z,85.14
2017-04-23T10:57:28.650Z,84.66
2017-04-23T10:58:28.675Z,84.85
2017-04-23T10:59:28.697Z,85.86
2017-04-23T11:00:28.717Z,87.76
2017-04-23T11:01:28.739Z,86.94
2017-04-23T11:02:28.761Z,88.46
2017-04-23T11:03:28.781Z,87.9
2017-04-23T11:04:28.805Z,85.28
2017-04-23T11:05:28.825Z,86.38
2017-04-23T11:06:28.846Z,86.22
2017-04-23T11:07:43.489Z,84.8
2017-04-23T11:08:28.890Z,83.56
2017-04-23T11:09:28.913Z,84.23
2017-04-23T11:10:28.933Z,83.47
2017-04-23T11:11:28.955Z,82.04
2017-04-23T11:12:28.979Z,82.61
2017-04-23T11:13:28.998Z,82.86
2017-04-23T11:14:29.019Z,84.04
2017-04-23T11:15:29.041Z,85.14
2017-04-23T11:16:29.063Z,83.47
2017-04-23T11:17:29.084Z,83.37
2017-04-23T11:18:29.108Z,82.99
2017-04-23T11:19:29.129Z,82.14
2017-04-23T11:21:29.172Z,84.27
2017-04-23T11:22:43.811Z,82.08
2017-04-23T11:23:28.912Z,81.51
2017-04-23T11:24:29.236Z,80.08
2017-04-23T11:25:29.261Z,80.42
2017-04-23T11:27:29.303Z,81.66
2017-04-23T11:28:29.324Z,81.05
2017-04-23T11:29:29.351Z,83.19
2017-04-23T11:30:29.368Z,84.24
2017-04-23T11:31:29.388Z,84.91
2017-04-23T11:32:29.412Z,86.1
2017-04-23T11:33:29.437Z,87.43
2017-04-23T11:34:29.457Z,88.38
2017-04-23T11:35:29.568Z,88.38
2017-04-23T11:36:29.496Z,89.52
2017-04-23T11:37:29.516Z,89.52
2017-04-23T11:38:29.547Z,89.18
2017-04-23T11:39:29.561Z,87.85
2017-04-23T11:40:29.580Z,88.42
2017-04-23T11:41:29.603Z,87.95
2017-04-23T11:42:29.623Z,86.8
2017-04-23T11:43:29.644Z,87.09
2017-04-23T11:44:29.665Z,86.71
2017-04-23T11:45:29.686Z,86.9
2017-04-23T11:46:29.709Z,86.9
2017-04-23T11:47:29.731Z,86.61
2017-04-23T11:48:29.753Z,86.05
2017-04-23T11:49:29.773Z,86.33
2017-04-23T11:50:29.794Z,87.38
2017-04-23T11:52:29.838Z,86.43
2017-04-23T11:53:29.858Z,85.47
2017-04-23T11:54:44.495Z,84.66
2017-04-23T11:55:29.899Z,85.04
2017-04-23T11:56:29.922Z,85.61
2017-04-23T11:57:29.942Z,83.71
2017-04-23T11:58:29.968Z,84.85
2017-04-23T11:59:29.984Z,84.23
2017-04-23T12:00:30.007Z,84.8
2017-04-23T12:01:30.027Z,82.56
2017-04-23T12:02:30.049Z,81.41
2017-04-23T12:03:30.070Z,79.75
2017-04-23T12:04:30.091Z,78.99
2017-04-23T12:05:30.114Z,78.71
2017-04-23T12:06:30.134Z,78.14
2017-04-23T12:09:30.200Z,75.95
2017-04-23T12:10:44.838Z,75.67
2017-04-23T12:11:30.243Z,76.29
2017-04-23T12:12:30.265Z,77.34
2017-04-23T12:13:30.287Z,77.15
2017-04-23T12:14:30.308Z,78.33
2017-04-23T12:15:30.026Z,77.56
2017-04-23T12:16:30.351Z,76.04
2017-04-23T12:17:30.372Z,77.09
2017-04-23T12:18:30.396Z,79.57
2017-04-23T12:19:30.417Z,77.61
2017-04-23T12:20:30.437Z,74.94
2017-04-23T12:22:30.481Z,75.51
2017-04-23T12:23:30.506Z,75.23
2017-04-23T12:24:30.524Z,75.51
2017-04-23T12:25:30.545Z,73.99
2017-04-23T12:26:45.183Z,73.8
2017-04-23T12:27:30.589Z,74.43
2017-04-23T12:28:30.619Z,76.71
2017-04-23T12:29:30.631Z,75.99
2017-04-23T12:30:30.655Z,73.7
2017-04-23T12:31:30.676Z,72.65
2017-04-23T12:32:30.717Z,72.85
2017-04-23T12:33:30.719Z,72.56
2017-04-23T12:34:30.743Z,73.61
2017-04-23T12:35:30.776Z,72.56
2017-04-23T12:36:30.821Z,72.42
2017-04-23T12:37:30.814Z,74.18
2017-04-23T12:38:30.852Z,73.61
2017-04-23T12:40:30.911Z,72.56
2017-04-23T12:41:30.903Z,71.8
2017-04-23T12:42:45.531Z,72.46
2017-04-23T12:43:30.943Z,72.85
2017-04-23T12:44:30.979Z,73.41
2017-04-23T12:45:30.992Z,72.65
2017-04-23T12:46:31.013Z,72.75
2017-04-23T12:47:31.049Z,73.99
2017-04-23T12:48:31.062Z,74.18
2017-04-23T12:49:31.072Z,73.22
2017-04-23T12:50:31.212Z,72.27
2017-04-23T12:51:31.131Z,72.08
2017-04-23T12:52:31.167Z,73.13
2017-04-23T12:53:31.222Z,72.75
2017-04-23T12:54:31.186Z,72.08
2017-04-23T12:55:31.260Z,73.57
2017-04-23T12:56:31.248Z,73.51
2017-04-23T12:57:45.859Z,72.75
2017-04-23T12:58:31.293Z,72.08
2017-04-23T12:59:31.295Z,72.75
2017-04-23T13:00:31.314Z,72.94
2017-04-23T13:01:31.396Z,71.73
2017-04-23T13:02:31.364Z,70.97
2017-04-23T13:03:31.410Z,69.64
2017-04-23T13:04:31.114Z,69.64
2017-04-23T13:05:31.120Z,69.83
2017-04-23T13:06:31.456Z,69.64
2017-04-23T13:08:31.483Z,67.16
2017-04-23T13:09:31.564Z,67.26
2017-04-23T13:10:31.554Z,67.22
2017-04-23T13:11:31.555Z,67.13
2017-04-23T13:12:31.568Z,67.22
2017-04-23T13:13:31.608Z,67.51
2017-04-23T13:15:31.643Z,68.27
2017-04-23T13:16:31.688Z,67.99
2017-04-23T13:17:31.699Z,68.65
2017-04-23T13:18:31.702Z,66.85
2017-04-23T13:19:31.750Z,67.22
2017-04-23T13:20:31.744Z,67.22
2017-04-23T13:21:31.881Z,68.27
2017-04-23T13:22:31.793Z,67.74
2017-04-23T13:24:31.848Z,65.73
2017-04-23T13:25:31.862Z,64.87
2017-04-23T13:26:31.892Z,64.87
2017-04-23T13:27:31.921Z,65.55
2017-04-23T13:28:31.939Z,64.5
2017-04-23T13:29:46.556Z,64.12
2017-04-23T13:30:31.961Z,64.5
2017-04-23T13:32:32.043Z,64.21
2017-04-23T13:33:32.026Z,65
2017-04-23T13:34:32.083Z,64.15
2017-04-23T13:35:32.104Z,64.34
2017-04-23T13:36:32.113Z,63.1
2017-04-23T13:37:32.153Z,65.23
2017-04-23T13:38:32.144Z,64.28
2017-04-23T13:39:31.908Z,62.84
2017-04-23T13:40:32.193Z,61.41
2017-04-23T13:42:32.254Z,61.51
2017-04-23T13:43:32.285Z,61.38
2017-04-23T13:44:32.277Z,61.86
2017-04-23T13:45:46.910Z,61.96
2017-04-23T13:47:32.056Z,61.48
2017-04-23T13:48:32.118Z,62.81
2017-04-23T13:49:32.386Z,62.24
2017-04-23T13:50:32.115Z,63
2017-04-23T13:51:32.450Z,62.08
2017-04-23T13:52:32.504Z,60.36